< < Back
Terminal Aerodrome Forecast


Current Version              Previous Versions:   1  2  3  4  5  6  7  8  9  

Terminal Aerodrome Forecast

546
FTUS42 KGSP 241158 CCA
TAFHKY
TAF COR
KHKY 241158Z 2412/2512 18004KT P6SM FEW250=

Latest METAR

956
SAUS70 KWBC 250000
MTRHKY
METAR KHKY 242353Z AUTO 00000KT 10SM CLR 32/21 A3002 RMK AO2 SLP142
T03170211 10339 20317 55001


USA.gov is the U.S. government's official web portal to all federal, state and local government web resources and services.